Patterson, Louisiana
Current Conditions -  °F | °C
As of 7:55 PM on Wednesday 26 Nov 2014 (Local Time) from KPTN Reporting Station
Clear Clear  
Wind Chill: 11°   Ceiling: Unl
Heat Index: 11°   Visibility: 10mi
Dew Point:   Wind: 6mph
Humidity: 88%   Direction: 240°WSW
Pressure: 30.27"   Gusts: NA
Location:  29.69°N, 91.3°W
Report Text: KPTN 270155Z AUTO 24005KT 10SM CLR 11/09 A3027 RMK AO1
Loading
Personal Weather Stations






























Interactive Weather Map New forecast layout! Learn more

10-Day Weather Forecast

Advertisements
Track Severe Weather on mobile